Time;durP1;ratioP1;P1;durP2;ratioP2;P2;SDS_P1;SDS_P2;PMS_P1;PMS_P2;Temp;Humidity;BMP_temperature;BMP_pressure;BME280_temperature;BME280_humidity;BME280_pressure;Samples;Min_cycle;Max_cycle;Signal;HPM_P1;HPM_P2
2022/03/13 00:02:17;;;;;;;11.32;5.53;;;3.90;58.90;;;;;;5031856;28;20180;-67
2022/03/13 00:04:49;;;;;;;10.98;5.10;;;3.80;58.90;;;;;;5033894;28;20043;-69
2022/03/13 00:07:19;;;;;;;10.77;4.60;;;3.90;58.80;;;;;;5049473;28;20146;-69
2022/03/13 00:09:48;;;;;;;12.63;4.78;;;3.80;58.80;;;;;;5031601;28;20076;-68
2022/03/13 00:12:18;;;;;;;9.43;5.28;;;3.80;58.90;;;;;;5035522;28;20048;-68
2022/03/13 00:14:46;;;;;;;10.50;4.43;;;3.70;58.80;;;;;;5028010;28;20041;-68
2022/03/13 00:17:15;;;;;;;9.80;4.57;;;3.70;58.80;;;;;;5030989;28;20052;-68
2022/03/13 00:19:43;;;;;;;15.00;5.43;;;3.70;59.00;;;;;;5028634;28;20164;-67
2022/03/13 00:22:12;;;;;;;9.15;5.20;;;3.70;58.90;;;;;;5032835;28;20157;-67
2022/03/13 00:24:39;;;;;;;9.20;4.20;;;3.70;59.00;;;;;;5031340;28;20783;-68
2022/03/13 00:27:07;;;;;;;8.07;4.20;;;3.70;59.00;;;;;;5036368;28;20049;-68
2022/03/13 00:29:36;;;;;;;12.30;5.13;;;3.60;59.10;;;;;;5038389;28;20507;-66
2022/03/13 00:32:04;;;;;;;11.38;5.07;;;3.60;59.10;;;;;;5034058;28;20040;-70
2022/03/13 00:34:33;;;;;;;9.82;4.80;;;3.60;59.30;;;;;;5035943;28;20072;-69
2022/03/13 00:37:00;;;;;;;16.05;5.55;;;3.60;59.20;;;;;;5036209;28;20052;-69
2022/03/13 00:39:29;;;;;;;8.48;4.57;;;3.50;59.20;;;;;;5034604;28;20045;-68
2022/03/13 00:41:56;;;;;;;9.25;4.60;;;3.50;59.30;;;;;;5036614;28;20143;-67
2022/03/13 00:44:24;;;;;;;10.07;4.00;;;3.50;59.40;;;;;;5034813;28;20403;-67
2022/03/13 00:46:51;;;;;;;13.38;4.22;;;3.40;59.40;;;;;;5050684;28;20058;-67
2022/03/13 00:49:18;;;;;;;7.38;3.65;;;3.40;59.50;;;;;;5059189;28;20091;-67
2022/03/13 00:51:45;;;;;;;8.85;4.65;;;3.40;59.40;;;;;;5057686;28;20909;-70
2022/03/13 00:54:12;;;;;;;9.57;4.75;;;3.30;59.70;;;;;;5047228;28;20127;-68
2022/03/13 00:56:40;;;;;;;9.02;4.53;;;3.40;59.80;;;;;;5036711;28;20527;-68
2022/03/13 00:59:09;;;;;;;9.13;4.10;;;3.40;59.70;;;;;;5035221;28;20064;-67
2022/03/13 01:01:36;;;;;;;16.58;5.07;;;3.30;60.00;;;;;;5032006;28;20041;-68
2022/03/13 01:04:03;;;;;;;10.93;5.28;;;3.30;59.80;;;;;;5033951;28;20055;-67
2022/03/13 01:06:30;;;;;;;11.13;5.85;;;3.30;60.00;;;;;;5034376;28;20041;-67
2022/03/13 01:08:57;;;;;;;8.45;4.15;;;3.30;60.00;;;;;;5032591;28;20041;-67
2022/03/13 01:11:26;;;;;;;9.90;4.95;;;3.20;60.20;;;;;;5032592;28;20054;-68
2022/03/13 01:13:55;;;;;;;10.68;4.32;;;3.20;60.00;;;;;;5031956;28;20113;-67
2022/03/13 01:16:23;;;;;;;8.23;3.50;;;3.20;59.90;;;;;;5030993;28;20315;-68
2022/03/13 01:18:52;;;;;;;10.55;4.57;;;3.20;59.90;;;;;;5030413;28;20075;-67
2022/03/13 01:21:20;;;;;;;7.70;3.83;;;3.20;60.10;;;;;;5031553;28;20049;-68
2022/03/13 01:24:17;;;;;;;8.93;4.63;;;3.20;60.00;;;;;;5030678;28;20044;-68
2022/03/13 01:26:44;;;;;;;9.73;3.88;;;3.20;60.00;;;;;;5030752;28;20115;-69
2022/03/13 01:29:15;;;;;;;11.02;4.18;;;3.10;59.90;;;;;;5032525;28;20056;-69
2022/03/13 01:31:46;;;;;;;9.90;4.18;;;3.10;59.90;;;;;;5030971;28;20053;-69
2022/03/13 01:34:26;;;;;;;11.02;4.03;;;3.00;60.10;;;;;;5030890;28;20064;-68
2022/03/13 01:36:53;;;;;;;10.20;5.00;;;3.10;60.10;;;;;;5032066;28;21007;-70
2022/03/13 01:39:19;;;;;;;14.10;4.65;;;3.00;60.00;;;;;;5031752;28;20059;-69
2022/03/13 01:41:47;;;;;;;9.75;3.63;;;3.10;59.90;;;;;;5031082;28;20100;-69
2022/03/13 01:44:15;;;;;;;10.93;4.53;;;3.00;60.00;;;;;;5030797;28;20052;-69
2022/03/13 01:46:42;;;;;;;10.15;4.72;;;3.00;60.00;;;;;;5031291;28;20407;-66
2022/03/13 01:49:09;;;;;;;14.00;4.90;;;3.00;60.20;;;;;;5031507;28;20041;-69
2022/03/13 01:51:37;;;;;;;9.15;3.67;;;2.90;60.20;;;;;;5036163;28;20041;-68
2022/03/13 01:54:08;;;;;;;10.45;4.30;;;2.90;60.40;;;;;;5031266;28;21590;-69
2022/03/13 01:56:36;;;;;;;6.85;3.22;;;2.90;60.20;;;;;;5029005;28;20057;-67
2022/03/13 01:59:06;;;;;;;9.25;4.13;;;2.80;60.30;;;;;;5027880;28;20049;-69
2022/03/13 02:01:35;;;;;;;8.68;4.38;;;2.80;60.40;;;;;;5028078;28;20199;-70
2022/03/13 02:04:03;;;;;;;9.48;3.63;;;2.80;60.40;;;;;;5023595;28;20059;-69
2022/03/13 02:06:31;;;;;;;6.22;2.80;;;2.80;60.50;;;;;;5024380;28;20054;-69
2022/03/13 02:08:58;;;;;;;9.43;4.00;;;2.80;60.60;;;;;;5026547;28;20049;-68
2022/03/13 02:11:30;;;;;;;7.45;3.42;;;2.80;60.60;;;;;;5029189;28;20052;-70
2022/03/13 02:13:57;;;;;;;13.63;3.30;;;2.80;60.70;;;;;;5025460;28;20183;-69
2022/03/13 02:16:29;;;;;;;8.45;2.97;;;2.80;60.60;;;;;;5027358;28;20040;-69
2022/03/13 02:18:57;;;;;;;8.07;3.05;;;2.70;60.70;;;;;;5023839;28;20064;-69
2022/03/13 02:21:27;;;;;;;6.43;2.92;;;2.70;60.80;;;;;;5027270;28;20491;-69
2022/03/13 02:24:01;;;;;;;6.07;2.85;;;2.70;60.80;;;;;;5025561;28;20119;-69
2022/03/13 02:26:29;;;;;;;6.13;2.85;;;2.70;60.80;;;;;;5022677;28;20056;-69
2022/03/13 02:28:57;;;;;;;6.75;2.70;;;2.60;60.90;;;;;;5024567;28;20056;-68
2022/03/13 02:31:28;;;;;;;8.15;3.25;;;2.60;61.00;;;;;;5023817;28;20029;-69
2022/03/13 02:33:57;;;;;;;7.35;3.50;;;2.50;61.30;;;;;;5026433;28;20098;-69
2022/03/13 02:36:40;;;;;;;8.75;3.75;;;2.50;61.20;;;;;;5026639;28;20687;-67
2022/03/13 02:39:11;;;;;;;13.38;3.97;;;2.50;61.30;;;;;;5043587;28;20045;-68
2022/03/13 02:41:40;;;;;;;8.82;3.88;;;2.50;61.50;;;;;;5025695;28;20049;-69
2022/03/13 02:44:09;;;;;;;8.93;3.42;;;2.60;61.20;;;;;;5026243;28;20043;-69
2022/03/13 02:47:09;;;;;;;9.90;3.78;;;2.60;61.30;;;;;;5026273;28;20053;-69
2022/03/13 02:49:36;;;;;;;9.13;3.83;;;2.50;61.40;;;;;;4942032;28;20038;-69
2022/03/13 02:52:06;;;;;;;6.18;2.92;;;2.50;61.60;;;;;;4945473;28;20070;-68
2022/03/13 02:54:35;;;;;;;7.15;3.25;;;2.50;61.70;;;;;;4982690;28;20073;-68
2022/03/13 02:57:03;;;;;;;9.93;4.00;;;2.50;61.70;;;;;;5025922;28;20045;-68
2022/03/13 02:59:30;;;;;;;10.23;4.80;;;2.50;61.60;;;;;;5023281;28;20112;-69
2022/03/13 03:01:57;;;;;;;9.75;4.18;;;2.50;61.70;;;;;;5024809;28;20372;-68
2022/03/13 03:04:25;;;;;;;10.02;4.15;;;2.50;61.50;;;;;;5024211;28;21976;-68
2022/03/13 03:06:56;;;;;;;8.10;4.07;;;2.50;61.50;;;;;;5024200;28;20128;-69
2022/03/13 03:09:24;;;;;;;9.75;4.70;;;2.40;61.60;;;;;;5029453;28;20582;-69
2022/03/13 03:11:52;;;;;;;10.68;4.25;;;2.40;61.50;;;;;;5025566;28;20040;-70
2022/03/13 03:14:20;;;;;;;10.63;4.18;;;2.40;61.50;;;;;;5035593;28;20064;-67
2022/03/13 03:16:47;;;;;;;9.68;3.47;;;2.40;61.60;;;;;;5029435;28;20491;-67
2022/03/13 03:19:14;;;;;;;7.95;3.25;;;2.30;61.70;;;;;;5030110;28;22086;-68
2022/03/13 03:21:42;;;;;;;6.82;3.45;;;2.30;61.70;;;;;;5028964;28;20069;-67
2022/03/13 03:24:13;;;;;;;9.00;3.78;;;2.30;61.70;;;;;;5028564;28;20046;-69
2022/03/13 03:26:40;;;;;;;8.35;4.43;;;2.30;61.90;;;;;;5027831;28;20037;-68
2022/03/13 03:29:08;;;;;;;5.07;3.22;;;2.30;61.90;;;;;;5029027;28;20049;-69
2022/03/13 03:31:41;;;;;;;7.10;3.70;;;2.20;62.00;;;;;;5029583;28;20044;-69
2022/03/13 03:34:10;;;;;;;7.50;3.35;;;2.20;62.10;;;;;;5028394;28;20041;-69
2022/03/13 03:36:41;;;;;;;9.32;3.55;;;2.20;62.00;;;;;;5028222;28;20175;-69
2022/03/13 03:39:08;;;;;;;8.25;2.85;;;2.20;62.10;;;;;;5029679;28;20086;-68
2022/03/13 03:41:36;;;;;;;8.70;3.75;;;2.20;61.90;;;;;;5029477;28;20107;-67
2022/03/13 03:44:03;;;;;;;7.35;3.47;;;2.20;61.90;;;;;;5030259;28;20049;-70
2022/03/13 03:46:31;;;;;;;9.75;4.50;;;2.20;62.00;;;;;;5031796;28;20041;-69
2022/03/13 03:48:58;;;;;;;7.55;3.75;;;2.10;62.30;;;;;;5029193;28;20045;-68
2022/03/13 03:51:25;;;;;;;7.25;2.80;;;2.10;62.40;;;;;;5029121;28;20068;-69
2022/03/13 03:53:52;;;;;;;8.77;3.45;;;2.20;62.30;;;;;;5028430;28;20044;-69
2022/03/13 03:56:19;;;;;;;5.18;2.60;;;2.10;62.40;;;;;;5039612;28;21259;-70
2022/03/13 03:58:48;;;;;;;9.32;3.55;;;2.10;62.40;;;;;;5031652;28;20059;-69
2022/03/13 04:01:18;;;;;;;7.43;3.92;;;2.20;62.40;;;;;;5029868;28;20041;-69
2022/03/13 04:03:46;;;;;;;10.40;4.03;;;2.10;62.40;;;;;;5045989;28;20045;-70
2022/03/13 04:06:14;;;;;;;7.32;3.63;;;2.10;62.30;;;;;;5026155;28;20056;-69
2022/03/13 04:08:44;;;;;;;9.98;3.05;;;2.10;62.20;;;;;;5031489;28;20045;-69
2022/03/13 04:11:12;;;;;;;9.38;4.47;;;2.10;62.30;;;;;;5036318;28;20102;-69
2022/03/13 04:13:39;;;;;;;5.70;3.00;;;2.10;62.30;;;;;;5033445;28;20056;-68
2022/03/13 04:16:08;;;;;;;8.18;3.28;;;2.00;62.40;;;;;;5040729;28;20041;-69
2022/03/13 04:18:37;;;;;;;7.57;3.38;;;2.10;62.30;;;;;;5057019;28;20044;-68
2022/03/13 04:21:07;;;;;;;7.47;3.22;;;2.10;62.50;;;;;;5057339;28;20409;-68
2022/03/13 04:23:35;;;;;;;10.85;3.17;;;2.00;62.50;;;;;;5033095;28;20051;-68
2022/03/13 04:26:03;;;;;;;5.85;3.03;;;1.90;62.50;;;;;;5057634;28;20737;-68
2022/03/13 04:28:30;;;;;;;8.18;3.45;;;2.00;62.40;;;;;;5048691;28;20032;-69
2022/03/13 04:30:59;;;;;;;6.00;3.10;;;2.00;62.40;;;;;;5052543;28;20597;-69
2022/03/13 04:33:27;;;;;;;7.90;3.63;;;2.00;62.50;;;;;;5043036;28;20113;-67
2022/03/13 04:35:57;;;;;;;10.05;4.22;;;1.90;62.70;;;;;;5051749;28;20156;-69
2022/03/13 04:38:26;;;;;;;6.10;2.67;;;1.90;62.50;;;;;;5064069;28;20071;-70
2022/03/13 04:40:54;;;;;;;3.65;2.25;;;1.90;62.40;;;;;;5054719;28;20628;-68
2022/03/13 04:43:22;;;;;;;9.02;3.38;;;1.90;62.40;;;;;;5043276;28;20061;-69
2022/03/13 04:45:50;;;;;;;5.22;2.75;;;1.90;62.60;;;;;;5046642;28;20035;-69
2022/03/13 04:48:17;;;;;;;6.88;3.00;;;1.80;62.50;;;;;;5061028;28;20128;-70
2022/03/13 04:50:46;;;;;;;7.22;3.25;;;1.90;62.50;;;;;;5048992;28;20048;-69
2022/03/13 04:53:13;;;;;;;10.50;3.65;;;1.90;62.30;;;;;;5040122;28;20051;-68
2022/03/13 04:55:42;;;;;;;12.10;4.22;;;1.80;62.20;;;;;;5043509;28;20032;-69
2022/03/13 04:58:13;;;;;;;6.10;3.00;;;1.90;62.10;;;;;;5044410;28;20050;-69
2022/03/13 05:00:40;;;;;;;8.07;3.58;;;1.80;62.20;;;;;;5047334;28;20897;-70
2022/03/13 05:03:08;;;;;;;8.05;3.65;;;1.80;62.10;;;;;;5048547;28;20053;-69
2022/03/13 05:05:36;;;;;;;8.75;3.17;;;1.90;62.10;;;;;;5040431;28;20048;-70
2022/03/13 05:08:05;;;;;;;6.20;3.00;;;1.80;61.90;;;;;;5043348;28;20866;-69
2022/03/13 05:10:37;;;;;;;8.93;3.40;;;1.80;62.20;;;;;;5047091;28;20036;-70
2022/03/13 05:13:08;;;;;;;9.73;3.53;;;1.90;61.90;;;;;;5052458;28;20052;-69
2022/03/13 05:15:36;;;;;;;7.47;3.22;;;1.80;61.90;;;;;;5063178;28;20405;-68
2022/03/13 05:18:03;;;;;;;9.32;3.88;;;1.90;61.60;;;;;;5046841;28;20041;-69
2022/03/13 05:20:35;;;;;;;5.88;2.95;;;1.90;61.50;;;;;;5045974;28;20051;-69
2022/03/13 05:23:03;;;;;;;5.72;2.83;;;1.80;61.50;;;;;;5046848;28;20174;-70
2022/03/13 05:25:32;;;;;;;7.75;3.00;;;1.80;61.40;;;;;;5051518;28;20075;-69
2022/03/13 05:28:00;;;;;;;6.43;2.50;;;1.80;61.30;;;;;;5052147;28;20129;-69
2022/03/13 05:30:29;;;;;;;6.25;2.00;;;1.70;61.40;;;;;;5045783;28;20037;-69
2022/03/13 05:32:56;;;;;;;7.28;3.45;;;1.70;61.20;;;;;;5045012;28;20474;-68
2022/03/13 05:35:24;;;;;;;6.30;2.33;;;1.70;60.90;;;;;;5043264;28;20053;-69
2022/03/13 05:37:51;;;;;;;7.07;2.38;;;1.80;61.00;;;;;;5048183;28;20119;-69
2022/03/13 05:40:19;;;;;;;6.03;2.70;;;1.70;60.90;;;;;;5049166;28;20044;-69
2022/03/13 05:42:49;;;;;;;4.90;2.47;;;1.70;60.80;;;;;;5052018;28;20068;-70
2022/03/13 05:45:19;;;;;;;8.05;3.03;;;1.70;60.70;;;;;;5049262;28;20148;-70
2022/03/13 05:47:49;;;;;;;7.85;3.90;;;1.70;60.70;;;;;;5046655;28;20044;-70
2022/03/13 05:50:18;;;;;;;5.40;2.58;;;1.70;60.40;;;;;;5045212;28;20059;-70
2022/03/13 05:52:45;;;;;;;9.60;3.35;;;1.70;60.30;;;;;;5055202;28;20052;-69
2022/03/13 05:55:13;;;;;;;7.03;3.25;;;1.80;60.30;;;;;;5055136;28;20043;-69
2022/03/13 05:57:40;;;;;;;7.20;3.30;;;1.70;60.40;;;;;;5057287;28;20033;-69
2022/03/13 06:00:10;;;;;;;7.82;2.88;;;1.70;60.40;;;;;;5040915;28;20041;-69
2022/03/13 06:02:47;;;;;;;7.05;3.47;;;1.70;60.30;;;;;;5043319;28;20033;-69
2022/03/13 06:05:17;;;;;;;7.53;3.05;;;1.70;60.30;;;;;;5047863;28;20045;-69
2022/03/13 06:07:44;;;;;;;5.45;2.35;;;1.70;60.30;;;;;;5048487;28;20043;-68
2022/03/13 06:10:11;;;;;;;7.50;3.13;;;1.70;60.30;;;;;;5044614;28;20482;-68
2022/03/13 06:12:38;;;;;;;6.88;2.75;;;1.70;60.40;;;;;;5044684;28;20054;-69
2022/03/13 06:15:08;;;;;;;4.78;2.90;;;1.70;60.60;;;;;;5044400;28;20041;-70
2022/03/13 06:17:39;;;;;;;10.55;2.95;;;1.70;60.50;;;;;;5045246;28;20122;-69
2022/03/13 06:20:08;;;;;;;6.38;2.45;;;1.70;60.40;;;;;;5047524;28;20090;-69
2022/03/13 06:22:37;;;;;;;6.50;3.00;;;1.70;60.30;;;;;;5054734;28;20403;-70
2022/03/13 06:25:07;;;;;;;6.93;2.38;;;1.70;60.30;;;;;;5049398;28;20041;-68
2022/03/13 06:27:35;;;;;;;9.75;2.65;;;1.80;60.20;;;;;;5058400;28;20148;-69
2022/03/13 06:30:11;;;;;;;8.52;3.03;;;1.80;60.20;;;;;;5051252;28;20045;-70
2022/03/13 06:32:38;;;;;;;4.45;2.40;;;1.80;60.40;;;;;;5044346;28;20041;-70
2022/03/13 06:35:05;;;;;;;9.30;2.60;;;1.80;60.20;;;;;;5045410;28;20052;-69
2022/03/13 06:37:32;;;;;;;4.93;2.08;;;1.80;60.20;;;;;;5043498;28;20104;-69
2022/03/13 06:40:01;;;;;;;6.43;2.38;;;1.80;60.00;;;;;;5041149;28;20065;-69
2022/03/13 06:42:28;;;;;;;7.32;2.88;;;1.90;60.30;;;;;;5036809;28;20143;-68
2022/03/13 06:44:55;;;;;;;5.82;2.67;;;1.90;60.10;;;;;;5041844;28;20040;-70
2022/03/13 06:47:26;;;;;;;10.00;3.08;;;2.00;60.20;;;;;;5045707;28;20394;-70
2022/03/13 06:49:53;;;;;;;6.55;3.15;;;1.90;60.20;;;;;;5040909;28;20037;-70
2022/03/13 06:52:20;;;;;;;6.35;2.75;;;2.00;60.20;;;;;;5052812;28;20045;-68
2022/03/13 06:54:47;;;;;;;7.10;2.38;;;2.10;59.70;;;;;;5055566;28;20040;-70
2022/03/13 06:57:16;;;;;;;6.40;2.40;;;2.20;59.00;;;;;;5058163;28;20470;-68
2022/03/13 06:59:44;;;;;;;8.80;2.88;;;2.20;58.80;;;;;;5053265;28;20044;-69
2022/03/13 07:02:11;;;;;;;11.20;3.22;;;2.30;58.70;;;;;;5055673;28;20139;-70
2022/03/13 07:04:38;;;;;;;5.68;2.20;;;2.40;58.80;;;;;;5053127;28;20043;-68
2022/03/13 07:07:07;;;;;;;5.82;3.08;;;2.40;59.10;;;;;;5053143;28;20053;-69
2022/03/13 07:09:34;;;;;;;6.50;2.50;;;2.40;59.00;;;;;;5059216;28;20040;-68
2022/03/13 07:12:02;;;;;;;6.93;2.72;;;2.50;58.70;;;;;;5057184;28;20055;-67
2022/03/13 07:14:30;;;;;;;6.07;3.15;;;2.50;58.80;;;;;;5048429;28;20194;-69
2022/03/13 07:16:57;;;;;;;8.15;2.70;;;2.60;58.80;;;;;;5055094;28;20037;-69
2022/03/13 07:19:24;;;;;;;7.05;2.60;;;2.60;58.30;;;;;;5055322;28;20051;-69
2022/03/13 07:21:52;;;;;;;6.90;3.15;;;2.70;57.80;;;;;;5055540;28;20128;-70
2022/03/13 07:24:19;;;;;;;8.05;2.60;;;2.80;57.10;;;;;;5055918;28;20041;-69
2022/03/13 07:26:46;;;;;;;7.03;2.38;;;2.80;56.50;;;;;;5052847;28;20045;-70
2022/03/13 07:29:13;;;;;;;7.43;3.40;;;2.90;56.40;;;;;;5047246;28;21129;-70
2022/03/13 07:31:41;;;;;;;6.95;2.50;;;3.00;56.10;;;;;;5045988;28;20047;-69
2022/03/13 07:34:08;;;;;;;6.03;2.65;;;3.00;55.80;;;;;;5053478;28;20056;-69
2022/03/13 07:36:35;;;;;;;5.88;2.83;;;3.10;55.60;;;;;;5059223;28;20505;-69
2022/03/13 07:39:03;;;;;;;11.27;3.15;;;3.20;55.30;;;;;;5045477;28;20052;-68
2022/03/13 07:41:31;;;;;;;6.18;2.65;;;3.20;54.70;;;;;;5020343;28;20045;-68
2022/03/13 07:43:58;;;;;;;9.15;2.70;;;3.30;53.90;;;;;;5026301;28;20047;-69
2022/03/13 07:46:25;;;;;;;6.82;2.85;;;3.30;53.70;;;;;;5020663;28;20561;-68
2022/03/13 07:48:53;;;;;;;6.95;2.97;;;3.40;53.50;;;;;;5024603;28;20056;-69
2022/03/13 07:51:20;;;;;;;6.32;2.58;;;3.50;53.50;;;;;;5026971;28;20131;-69
2022/03/13 07:53:47;;;;;;;6.68;2.50;;;3.50;53.20;;;;;;5025634;28;20041;-69
2022/03/13 07:56:15;;;;;;;5.53;2.65;;;3.60;53.00;;;;;;5027453;28;20156;-69
2022/03/13 07:58:42;;;;;;;4.15;2.08;;;3.60;52.90;;;;;;5025882;28;20049;-70
2022/03/13 08:01:09;;;;;;;4.82;2.08;;;3.70;52.30;;;;;;5024249;28;20113;-69
2022/03/13 08:03:36;;;;;;;5.03;2.55;;;3.80;51.30;;;;;;5028116;28;20064;-69
2022/03/13 08:06:05;;;;;;;6.63;2.65;;;3.90;51.00;;;;;;5023311;28;20048;-69
2022/03/13 08:08:32;;;;;;;6.63;1.95;;;4.00;50.10;;;;;;5023016;28;20059;-68
2022/03/13 08:10:59;;;;;;;5.57;2.25;;;4.10;48.80;;;;;;5024590;28;20053;-69
2022/03/13 08:13:26;;;;;;;4.07;2.08;;;4.20;47.60;;;;;;5026264;28;20056;-70
2022/03/13 08:15:53;;;;;;;4.95;2.10;;;4.30;47.70;;;;;;5027374;28;20049;-69
2022/03/13 08:18:20;;;;;;;6.53;2.45;;;4.40;47.90;;;;;;5033137;28;20045;-71
2022/03/13 08:20:47;;;;;;;5.63;2.15;;;4.50;47.10;;;;;;5036632;28;21949;-70
2022/03/13 08:23:16;;;;;;;4.32;2.33;;;4.60;47.30;;;;;;5026962;28;20123;-70
2022/03/13 08:25:44;;;;;;;4.78;2.00;;;4.70;47.10;;;;;;5032713;28;20115;-69
2022/03/13 08:28:11;;;;;;;3.40;1.90;;;4.70;46.30;;;;;;5033480;28;20072;-68
2022/03/13 08:30:38;;;;;;;5.22;2.40;;;4.90;45.50;;;;;;5030602;28;20148;-70
2022/03/13 08:33:05;;;;;;;3.88;1.80;;;5.00;45.60;;;;;;5027056;28;20067;-68
2022/03/13 08:35:32;;;;;;;5.20;1.92;;;5.10;45.80;;;;;;5030326;28;20075;-68
2022/03/13 08:37:59;;;;;;;6.45;2.08;;;5.20;45.20;;;;;;5032834;28;20048;-69
2022/03/13 08:40:29;;;;;;;4.32;2.17;;;5.30;45.20;;;;;;5029595;28;20044;-68
2022/03/13 08:42:56;;;;;;;5.57;1.97;;;5.40;45.10;;;;;;5032758;28;20502;-69
2022/03/13 08:45:23;;;;;;;6.20;2.40;;;5.50;44.90;;;;;;5030792;28;20507;-69
2022/03/13 08:47:50;;;;;;;5.63;2.72;;;5.60;44.50;;;;;;5033089;28;20045;-68
2022/03/13 08:50:17;;;;;;;4.93;2.17;;;5.60;44.60;;;;;;5032206;28;20060;-68
2022/03/13 08:52:44;;;;;;;4.57;2.08;;;5.70;44.70;;;;;;5027262;28;20163;-70
2022/03/13 08:55:13;;;;;;;8.50;2.67;;;5.80;45.00;;;;;;5027570;28;20045;-69
2022/03/13 08:57:43;;;;;;;5.72;2.80;;;5.90;44.40;;;;;;5031110;28;20045;-69
2022/03/13 09:00:11;;;;;;;4.13;1.88;;;6.00;44.60;;;;;;5026624;28;20117;-65
2022/03/13 09:02:38;;;;;;;8.02;3.05;;;6.10;44.40;;;;;;5028738;28;20079;-64
2022/03/13 09:05:06;;;;;;;5.57;2.03;;;6.20;44.60;;;;;;5024731;28;21037;-64
2022/03/13 09:07:34;;;;;;;6.63;2.38;;;6.20;44.40;;;;;;5026241;28;21956;-64
2022/03/13 09:10:02;;;;;;;5.97;1.98;;;6.30;44.60;;;;;;5030214;28;20041;-64
2022/03/13 09:12:31;;;;;;;7.05;2.72;;;6.40;44.10;;;;;;5026318;28;20833;-65
2022/03/13 09:14:59;;;;;;;7.28;2.67;;;6.50;43.70;;;;;;5022706;28;20179;-65
2022/03/13 09:17:26;;;;;;;6.25;2.35;;;6.60;44.10;;;;;;5028093;28;20171;-64
2022/03/13 09:19:55;;;;;;;5.68;2.78;;;6.70;43.80;;;;;;5029461;28;20036;-64
2022/03/13 09:22:30;;;;;;;5.90;2.35;;;6.80;43.60;;;;;;5029473;28;20092;-65
2022/03/13 09:24:58;;;;;;;6.50;2.35;;;6.90;43.60;;;;;;5024866;28;20064;-65
2022/03/13 09:27:25;;;;;;;5.82;2.55;;;7.00;42.90;;;;;;5028867;28;20049;-64
2022/03/13 09:30:19;;;;;;;6.18;2.47;;;7.00;43.20;;;;;;5025672;28;20495;-63
2022/03/13 09:32:46;;;;;;;5.80;2.25;;;7.10;43.30;;;;;;5010991;28;20179;-64
2022/03/13 09:35:13;;;;;;;5.88;2.30;;;7.20;43.80;;;;;;5027631;28;20063;-65
2022/03/13 09:37:41;;;;;;;5.90;2.80;;;7.30;43.20;;;;;;5028181;28;20045;-66
2022/03/13 09:40:10;;;;;;;5.95;2.88;;;7.40;43.40;;;;;;5026085;28;20056;-65
2022/03/13 09:42:37;;;;;;;7.95;3.10;;;7.50;44.00;;;;;;5023696;28;20532;-65
2022/03/13 09:45:04;;;;;;;7.75;3.25;;;7.50;44.10;;;;;;5026420;28;20471;-65
2022/03/13 09:47:33;;;;;;;7.53;3.83;;;7.60;44.10;;;;;;5028681;28;20045;-65
2022/03/13 09:50:00;;;;;;;7.07;3.22;;;7.70;43.80;;;;;;5038570;28;20052;-67
2022/03/13 09:52:27;;;;;;;9.57;4.10;;;7.70;44.00;;;;;;5026733;28;20658;-64
2022/03/13 09:54:54;;;;;;;11.60;4.85;;;7.80;44.70;;;;;;5025095;28;20325;-64
2022/03/13 09:57:21;;;;;;;12.07;5.22;;;7.90;44.00;;;;;;5027867;28;20040;-64
2022/03/13 09:59:48;;;;;;;11.73;4.55;;;8.00;43.30;;;;;;5023206;28;20084;-65
2022/03/13 10:02:15;;;;;;;14.13;5.20;;;8.10;43.10;;;;;;5025547;28;20458;-65
2022/03/13 10:04:44;;;;;;;10.00;4.63;;;8.20;43.30;;;;;;5026140;28;20044;-66
2022/03/13 10:07:12;;;;;;;13.13;4.63;;;8.20;43.60;;;;;;5025240;28;20207;-64
2022/03/13 10:09:43;;;;;;;9.20;4.47;;;8.20;43.90;;;;;;5027457;28;20060;-65
2022/03/13 10:12:12;;;;;;;13.13;5.15;;;8.30;43.70;;;;;;5024497;28;20251;-68
2022/03/13 10:14:58;;;;;;;10.68;4.85;;;8.40;43.80;;;;;;5024603;28;20037;-64
2022/03/13 10:17:26;;;;;;;9.70;3.60;;;8.40;43.20;;;;;;5023773;28;20053;-64
2022/03/13 10:19:55;;;;;;;8.98;3.75;;;8.50;42.90;;;;;;5027382;28;20548;-67
2022/03/13 10:22:29;;;;;;;9.98;3.50;;;8.60;42.30;;;;;;5020682;28;20048;-64
2022/03/13 10:24:56;;;;;;;9.30;3.50;;;8.60;42.00;;;;;;5022274;28;20041;-65
2022/03/13 10:27:23;;;;;;;9.65;3.97;;;8.70;42.30;;;;;;5039909;28;20847;-64
2022/03/13 10:29:50;;;;;;;9.05;3.92;;;8.70;43.30;;;;;;5023758;28;20079;-65
2022/03/13 10:32:19;;;;;;;7.47;3.58;;;8.80;42.90;;;;;;5042534;28;20059;-66
2022/03/13 10:34:56;;;;;;;8.23;3.35;;;8.80;43.00;;;;;;5048828;28;20486;-64
2022/03/13 10:37:34;;;;;;;7.53;3.35;;;8.90;43.60;;;;;;5043262;28;20502;-64
2022/03/13 10:40:12;;;;;;;9.00;3.40;;;9.00;42.90;;;;;;5040747;28;20032;-64
2022/03/13 10:42:43;;;;;;;6.38;3.83;;;9.10;42.60;;;;;;5045931;28;20052;-64
2022/03/13 10:45:10;;;;;;;;;;;9.10;42.60;;;;;;5047983;28;20068;-64
2022/03/13 10:47:38;;;;;;;7.05;3.08;;;9.20;42.60;;;;;;5059424;28;19924;-66
2022/03/13 10:50:09;;;;;;;11.40;3.38;;;9.20;42.90;;;;;;5046997;28;20045;-64
2022/03/13 10:52:41;;;;;;;6.82;3.13;;;9.20;42.50;;;;;;5049317;28;20407;-65
2022/03/13 10:55:20;;;;;;;7.80;2.60;;;9.30;42.60;;;;;;5049739;28;20036;-65
2022/03/13 10:57:53;;;;;;;7.50;2.90;;;9.30;42.00;;;;;;5044863;28;20045;-65
2022/03/13 11:00:22;;;;;;;6.45;2.90;;;9.40;42.00;;;;;;5044304;28;20045;-65
2022/03/13 11:02:49;;;;;;;6.38;2.40;;;9.40;42.50;;;;;;5049198;28;20048;-65
2022/03/13 11:05:18;;;;;;;9.02;3.33;;;9.40;42.00;;;;;;5042949;28;20110;-65
2022/03/13 11:07:45;;;;;;;7.75;3.78;;;9.50;41.40;;;;;;5047721;28;20465;-65
2022/03/13 11:10:12;;;;;;;11.52;2.85;;;9.50;41.40;;;;;;5048559;28;20045;-64
2022/03/13 11:12:40;;;;;;;6.35;2.63;;;9.60;41.80;;;;;;5043898;28;20052;-65
2022/03/13 11:15:11;;;;;;;7.13;3.28;;;9.70;40.30;;;;;;5042950;28;20049;-65
2022/03/13 11:17:40;;;;;;;6.65;3.17;;;9.70;39.90;;;;;;5043514;28;22369;-65
2022/03/13 11:20:09;;;;;;;6.43;2.78;;;9.70;40.80;;;;;;5046680;28;20084;-64
2022/03/13 11:22:37;;;;;;;7.40;3.00;;;9.70;40.60;;;;;;5044227;28;20044;-64
2022/03/13 11:25:07;;;;;;;10.07;3.13;;;9.80;40.20;;;;;;5055433;28;20094;-65
2022/03/13 11:27:36;;;;;;;6.30;2.83;;;9.80;39.20;;;;;;5051877;28;20061;-64
2022/03/13 11:30:06;;;;;;;6.72;3.40;;;9.80;40.00;;;;;;5046029;28;20076;-67
2022/03/13 11:32:39;;;;;;;8.07;3.35;;;9.80;39.70;;;;;;5050945;28;20036;-66
2022/03/13 11:35:29;;;;;;;7.80;3.35;;;9.80;39.70;;;;;;5045929;28;20050;-65
2022/03/13 11:38:18;;;;;;;5.75;2.50;;;9.90;39.90;;;;;;5044729;28;20140;-65
2022/03/13 11:40:45;;;;;;;6.18;2.70;;;9.90;40.50;;;;;;5044068;28;20049;-65
2022/03/13 11:43:14;;;;;;;4.47;2.78;;;9.90;40.40;;;;;;5046637;28;20497;-64
2022/03/13 11:45:42;;;;;;;5.55;3.00;;;10.00;40.50;;;;;;5043296;28;20049;-64
2022/03/13 11:48:40;;;;;;;6.55;2.88;;;10.00;40.30;;;;;;5044922;28;20052;-66
2022/03/13 11:51:07;;;;;;;5.25;2.53;;;10.00;40.30;;;;;;5046818;28;20118;-63
2022/03/13 11:53:49;;;;;;;8.38;3.47;;;10.10;40.70;;;;;;5046073;28;20516;-63
2022/03/13 11:56:27;;;;;;;6.85;2.72;;;10.10;40.40;;;;;;5038514;28;20073;-63
2022/03/13 11:59:00;;;;;;;5.60;2.65;;;10.10;40.60;;;;;;5050673;28;20033;-65
2022/03/13 12:01:35;;;;;;;6.68;2.60;;;10.10;40.30;;;;;;5053726;28;20386;-64
2022/03/13 12:04:24;;;;;;;8.40;2.97;;;10.10;40.60;;;;;;5052253;28;20048;-65
2022/03/13 12:06:55;;;;;;;7.13;3.00;;;10.10;40.10;;;;;;5052299;28;20032;-65
2022/03/13 12:09:29;;;;;;;6.95;3.13;;;10.10;40.60;;;;;;5054450;28;20426;-65
2022/03/13 12:12:04;;;;;;;8.32;3.40;;;10.20;40.40;;;;;;5052394;28;20041;-65
2022/03/13 12:15:02;;;;;;;7.22;3.15;;;10.20;40.30;;;;;;5045150;28;20047;-64
2022/03/13 12:17:31;;;;;;;8.15;3.20;;;10.20;40.00;;;;;;5053019;28;20045;-66
2022/03/13 12:20:00;;;;;;;6.43;2.97;;;10.20;40.10;;;;;;5058153;28;20045;-65
2022/03/13 12:22:30;;;;;;;6.70;2.78;;;10.20;40.20;;;;;;5046039;28;20048;-64
2022/03/13 12:25:00;;;;;;;5.95;3.15;;;10.20;40.00;;;;;;5049805;28;20063;-64
2022/03/13 12:27:28;;;;;;;7.50;3.60;;;10.20;40.40;;;;;;5048100;28;20124;-65
2022/03/13 12:29:57;;;;;;;5.60;2.95;;;10.20;40.10;;;;;;5050712;28;20414;-64
2022/03/13 12:32:32;;;;;;;6.35;2.72;;;10.20;39.90;;;;;;5047531;28;20040;-65
2022/03/13 12:35:00;;;;;;;6.47;2.72;;;10.20;40.10;;;;;;5058043;28;20045;-65
2022/03/13 12:37:27;;;;;;;6.05;3.20;;;10.20;40.40;;;;;;5061943;28;20037;-67
2022/03/13 12:39:57;;;;;;;6.60;3.15;;;10.20;40.20;;;;;;5040661;28;20118;-63
2022/03/13 12:42:27;;;;;;;6.18;3.30;;;10.20;40.50;;;;;;5049279;28;20061;-65
2022/03/13 12:45:07;;;;;;;6.70;3.10;;;10.20;40.60;;;;;;5046287;28;20490;-64
2022/03/13 12:47:39;;;;;;;8.93;4.10;;;10.20;40.50;;;;;;5046017;28;20661;-65
2022/03/13 12:50:11;;;;;;;11.85;5.05;;;10.20;40.90;;;;;;5050819;28;20283;-64
2022/03/13 12:52:39;;;;;;;11.40;5.80;;;10.20;41.10;;;;;;5049062;28;20045;-66
2022/03/13 12:55:08;;;;;;;14.02;5.53;;;10.20;41.20;;;;;;5044140;28;20044;-64
2022/03/13 12:57:37;;;;;;;11.25;5.07;;;10.20;41.40;;;;;;5043081;28;20040;-65
2022/03/13 13:00:06;;;;;;;11.95;5.47;;;10.20;41.40;;;;;;5047128;28;20051;-66
2022/03/13 13:02:35;;;;;;;16.02;6.53;;;10.20;41.60;;;;;;5049338;28;20040;-66
2022/03/13 13:05:04;;;;;;;14.27;4.97;;;10.20;41.40;;;;;;5051940;28;20048;-66
2022/03/13 13:07:35;;;;;;;12.93;6.78;;;10.20;41.50;;;;;;5061554;28;20098;-63